Time;durP1;ratioP1;P1;durP2;ratioP2;P2;SDS_P1;SDS_P2;PMS_P1;PMS_P2;Temp;Humidity;BMP_temperature;BMP_pressure;BME280_temperature;BME280_humidity;BME280_pressure;Samples;Min_cycle;Max_cycle;Signal;HPM_P1;HPM_P2
2022/03/01 00:01:09;;;;;;;17.58;10.90;;;;;;;-0.95;68.87;102605.03;5050367;28;20115;-20
2022/03/01 00:03:36;;;;;;;18.00;11.18;;;;;;;-0.96;68.97;102598.06;5048988;28;20021;-21
2022/03/01 00:06:01;;;;;;;18.60;11.73;;;;;;;-1.01;68.63;102594.25;5034937;28;20025;-20
2022/03/01 00:08:27;;;;;;;18.75;10.75;;;;;;;-0.99;69.00;102583.97;5048993;28;20017;-21
2022/03/01 00:10:52;;;;;;;17.02;10.82;;;;;;;-1.01;69.20;102589.06;5048797;28;20475;-20
2022/03/01 00:13:17;;;;;;;19.17;11.48;;;;;;;-1.05;69.17;102590.53;5050232;28;21792;-21
2022/03/01 00:15:43;;;;;;;22.33;11.25;;;;;;;-1.05;68.96;102581.88;5046403;28;20033;-22
2022/03/01 00:18:08;;;;;;;20.02;11.75;;;;;;;-1.07;69.21;102588.66;5050798;28;20500;-21
2022/03/01 00:20:34;;;;;;;17.25;9.70;;;;;;;-1.09;69.00;102583.34;5033369;28;20025;-22
2022/03/01 00:22:59;;;;;;;16.17;9.98;;;;;;;-1.11;69.17;102587.53;5050691;28;20453;-23
2022/03/01 00:25:24;;;;;;;19.63;11.45;;;;;;;-1.12;69.51;102577.06;5053962;28;20032;-23
2022/03/01 00:27:50;;;;;;;15.38;9.77;;;;;;;-1.12;69.33;102592.59;5050879;28;20021;-21
2022/03/01 00:30:15;;;;;;;17.33;10.35;;;;;;;-1.13;69.55;102585.63;5052951;28;20025;-24
2022/03/01 00:32:40;;;;;;;18.73;10.93;;;;;;;-1.15;69.54;102580.31;5018440;28;20036;-23
2022/03/01 00:35:06;;;;;;;18.35;10.32;;;;;;;-1.18;69.46;102570.66;5050551;28;20032;-21
2022/03/01 00:37:32;;;;;;;17.08;10.90;;;;;;;-1.19;69.41;102573.13;5053032;28;20024;-23
2022/03/01 00:39:57;;;;;;;15.57;10.88;;;;;;;-1.19;69.46;102567.97;5052112;28;20029;-21
2022/03/01 00:42:22;;;;;;;16.65;10.65;;;;;;;-1.22;69.18;102563.47;5036668;28;20470;-22
2022/03/01 00:44:48;;;;;;;22.67;12.10;;;;;;;-1.22;69.33;102567.75;5051476;28;20029;-21
2022/03/01 00:47:13;;;;;;;16.60;11.25;;;;;;;-1.23;69.62;102569.41;5046483;28;20048;-23
2022/03/01 00:49:38;;;;;;;18.92;10.35;;;;;;;-1.23;69.49;102572.00;5055824;28;20078;-21
2022/03/01 00:52:04;;;;;;;17.38;10.50;;;;;;;-1.25;69.83;102562.34;5037203;28;20071;-21
2022/03/01 00:54:29;;;;;;;16.27;10.30;;;;;;;-1.26;69.44;102561.47;5054320;28;20603;-21
2022/03/01 00:56:55;;;;;;;17.35;11.50;;;;;;;-1.26;69.68;102571.81;5061024;28;20012;-24
2022/03/01 00:59:20;;;;;;;21.63;11.50;;;;;;;-1.29;69.41;102572.47;5053291;28;20025;-25
2022/03/01 01:01:45;;;;;;;18.67;11.05;;;;;;;-1.29;69.31;102571.59;5052999;28;20037;-20
2022/03/01 01:04:11;;;;;;;17.77;10.73;;;;;;;-1.29;69.34;102571.59;5055946;28;20438;-21
2022/03/01 01:06:36;;;;;;;21.27;12.52;;;;;;;-1.30;69.14;102559.44;5049890;28;20098;-24
2022/03/01 01:09:02;;;;;;;22.00;11.90;;;;;;;-1.31;69.18;102560.22;5049601;28;20123;-21
2022/03/01 01:11:27;;;;;;;16.08;10.00;;;;;;;-1.33;69.48;102560.09;5051424;28;20020;-20
2022/03/01 01:13:53;;;;;;;19.15;11.25;;;;;;;-1.34;69.37;102557.41;5049333;28;20040;-20
2022/03/01 01:16:18;;;;;;;20.35;11.35;;;;;;;-1.33;69.68;102564.41;5058339;28;20390;-22
2022/03/01 01:18:43;;;;;;;18.52;12.05;;;;;;;-1.35;69.12;102560.81;5037287;28;20033;-20
2022/03/01 01:21:12;;;;;;;17.70;10.77;;;;;;;-1.36;69.50;102557.34;5035529;28;20381;-21
2022/03/01 01:23:38;;;;;;;20.27;11.80;;;;;;;-1.39;69.49;102559.69;5053046;28;20078;-21
2022/03/01 01:26:03;;;;;;;18.42;11.38;;;;;;;-1.38;69.13;102561.50;5052051;28;20401;-22
2022/03/01 01:28:29;;;;;;;13.73;10.13;;;;;;;-1.42;68.76;102555.22;5054537;28;20029;-23
2022/03/01 01:30:55;;;;;;;16.95;10.55;;;;;;;-1.44;68.84;102554.19;5056641;28;20025;-22
2022/03/01 01:33:20;;;;;;;15.80;10.55;;;;;;;-1.42;69.02;102559.47;5053081;28;20032;-24
2022/03/01 01:35:46;;;;;;;22.55;12.18;;;;;;;-1.44;68.98;102564.53;5057577;28;20043;-23
2022/03/01 01:38:11;;;;;;;18.38;11.63;;;;;;;-1.45;69.14;102569.59;5052458;28;20017;-21
2022/03/01 01:40:36;;;;;;;16.08;10.73;;;;;;;-1.48;69.33;102553.84;5048992;28;20056;-26
2022/03/01 01:43:04;;;;;;;19.98;11.45;;;;;;;-1.49;69.43;102560.75;5055532;28;20117;-24
2022/03/01 01:45:29;;;;;;;16.88;10.68;;;;;;;-1.51;69.15;102551.94;5055548;28;20467;-22
2022/03/01 01:47:58;;;;;;;17.45;11.13;;;;;;;-1.55;68.94;102557.69;5055693;28;20029;-21
2022/03/01 01:50:24;;;;;;;17.80;10.88;;;;;;;-1.56;69.25;102550.75;5056892;28;20021;-20
2022/03/01 01:52:51;;;;;;;16.38;10.75;;;;;;;-1.58;69.00;102554.88;5046243;28;20047;-22
2022/03/01 01:55:18;;;;;;;16.02;10.65;;;;;;;-1.60;69.32;102553.91;5047845;28;20044;-25
2022/03/01 01:57:44;;;;;;;18.52;11.00;;;;;;;-1.60;69.44;102548.72;5033668;28;20029;-21
2022/03/01 02:00:10;;;;;;;20.08;11.52;;;;;;;-1.63;69.44;102556.25;5037873;28;20024;-23
2022/03/01 02:02:36;;;;;;;18.88;11.68;;;;;;;-1.66;69.40;102548.28;5056814;28;20029;-21
2022/03/01 02:05:02;;;;;;;16.30;11.57;;;;;;;-1.68;69.05;102546.47;5037682;28;20497;-24
2022/03/01 02:07:28;;;;;;;16.55;10.77;;;;;;;-1.70;69.53;102542.88;5057705;28;20071;-21
2022/03/01 02:09:53;;;;;;;19.90;11.30;;;;;;;-1.70;69.74;102552.34;5040249;28;20108;-23
2022/03/01 02:12:18;;;;;;;19.20;11.13;;;;;;;-1.73;69.55;102547.81;5055438;28;20394;-25
2022/03/01 02:14:44;;;;;;;18.73;12.10;;;;;;;-1.73;69.58;102541.78;5052099;28;20037;-21
2022/03/01 02:17:10;;;;;;;20.45;11.23;;;;;;;-1.76;69.03;102542.47;5056774;28;20056;-22
2022/03/01 02:19:37;;;;;;;18.23;10.68;;;;;;;-1.76;68.95;102537.28;5052243;28;20478;-22
2022/03/01 02:22:05;;;;;;;15.98;11.00;;;;;;;-1.78;69.82;102544.00;5036516;28;20032;-23
2022/03/01 02:24:30;;;;;;;15.15;10.13;;;;;;;-1.78;69.54;102548.28;5051017;28;20032;-21
2022/03/01 02:26:57;;;;;;;16.33;11.27;;;;;;;-1.80;69.76;102535.25;5056251;28;20029;-21
2022/03/01 02:29:24;;;;;;;18.13;11.63;;;;;;;-1.80;69.66;102537.84;5057237;28;20035;-22
2022/03/01 02:31:50;;;;;;;15.25;10.18;;;;;;;-1.82;69.48;102536.81;5058524;28;20035;-21
2022/03/01 02:34:16;;;;;;;15.88;11.70;;;;;;;-1.84;69.14;102528.03;5064287;28;20032;-23
2022/03/01 02:36:41;;;;;;;17.73;9.80;;;;;;;-1.84;69.67;102534.13;5047644;28;20126;-22
2022/03/01 02:39:06;;;;;;;21.50;11.23;;;;;;;-1.85;69.21;102536.59;5056012;28;20489;-22
2022/03/01 02:41:36;;;;;;;15.73;10.77;;;;;;;-1.85;69.84;102526.25;5056760;28;20036;-24
2022/03/01 02:44:02;;;;;;;14.48;9.43;;;;;;;-1.85;69.23;102531.44;5056608;28;20021;-21
2022/03/01 02:46:27;;;;;;;15.35;10.70;;;;;;;-1.87;69.67;102527.84;5032102;28;21747;-21
2022/03/01 02:48:53;;;;;;;15.98;10.15;;;;;;;-1.87;69.42;102543.38;5056471;28;20027;-21
2022/03/01 02:51:18;;;;;;;15.93;9.18;;;;;;;-1.91;69.64;102525.84;5054152;28;20025;-21
2022/03/01 02:53:43;;;;;;;14.73;9.77;;;;;;;-1.91;69.71;102525.84;5050661;28;20032;-21
2022/03/01 02:56:09;;;;;;;16.50;9.85;;;;;;;-1.91;69.49;102525.84;5055560;28;20095;-22
2022/03/01 02:58:34;;;;;;;17.83;10.25;;;;;;;-1.93;69.56;102530.91;5055761;28;20032;-21
2022/03/01 03:00:59;;;;;;;17.27;11.30;;;;;;;-1.94;69.56;102516.13;5056861;28;20398;-24
2022/03/01 03:03:25;;;;;;;15.93;10.40;;;;;;;-1.96;69.73;102513.44;5057826;28;20076;-23
2022/03/01 03:05:50;;;;;;;14.73;10.20;;;;;;;-1.95;69.56;102528.19;5037287;28;20521;-20
2022/03/01 03:08:15;;;;;;;17.00;10.13;;;;;;;-1.96;69.28;102528.97;5053105;28;20104;-22
2022/03/01 03:10:41;;;;;;;17.67;10.63;;;;;;;-1.99;69.09;102522.69;5052477;28;20174;-22
2022/03/01 03:13:06;;;;;;;14.50;10.13;;;;;;;-1.99;69.43;102510.66;5052423;28;20028;-23
2022/03/01 03:15:32;;;;;;;17.65;10.40;;;;;;;-2.00;69.25;102511.41;5030870;28;20031;-21
2022/03/01 03:17:57;;;;;;;19.48;10.52;;;;;;;-2.02;69.05;102510.44;5052556;28;20025;-21
2022/03/01 03:20:23;;;;;;;17.50;10.18;;;;;;;-2.04;69.03;102513.69;5048585;28;20028;-21
2022/03/01 03:22:49;;;;;;;16.83;10.93;;;;;;;-2.04;69.32;102514.56;5052694;28;20104;-20
2022/03/01 03:25:15;;;;;;;15.27;9.98;;;;;;;-2.06;68.91;102505.81;5051253;28;20210;-21
2022/03/01 03:27:40;;;;;;;14.98;9.75;;;;;;;-2.07;68.77;102506.59;5035203;28;20171;-23
2022/03/01 03:30:07;;;;;;;15.55;10.23;;;;;;;-2.09;69.40;102501.34;5047610;28;20033;-21
2022/03/01 03:32:32;;;;;;;14.95;10.38;;;;;;;-2.09;69.00;102505.59;5055838;28;20040;-24
2022/03/01 03:34:57;;;;;;;16.05;10.75;;;;;;;-2.12;69.18;102495.94;5051683;28;20471;-21
2022/03/01 03:37:23;;;;;;;13.98;10.18;;;;;;;-2.12;69.50;102500.19;5042854;28;20032;-23
2022/03/01 03:39:48;;;;;;;16.85;10.50;;;;;;;-2.14;68.92;102494.03;5051983;28;20023;-23
2022/03/01 03:42:13;;;;;;;14.10;9.70;;;;;;;-2.17;69.52;102496.41;5051139;28;20027;-21
2022/03/01 03:44:39;;;;;;;19.90;10.27;;;;;;;-2.16;69.67;102500.75;5044603;28;20028;-24
2022/03/01 03:47:06;;;;;;;15.50;10.25;;;;;;;-2.21;69.12;102491.00;5050036;28;20036;-21
2022/03/01 03:49:32;;;;;;;16.98;11.00;;;;;;;-2.21;69.06;102505.59;5045622;28;20032;-20
2022/03/01 03:51:57;;;;;;;16.77;11.00;;;;;;;-2.23;68.98;102502.88;5035357;28;20029;-23
2022/03/01 03:54:23;;;;;;;17.48;11.05;;;;;;;-2.24;69.40;102505.38;5052138;28;20036;-23
2022/03/01 03:56:48;;;;;;;15.63;9.98;;;;;;;-2.26;69.29;102510.44;5047471;28;20484;-25
2022/03/01 03:59:13;;;;;;;15.68;9.73;;;;;;;-2.27;69.36;102506.03;5047817;28;20032;-22
2022/03/01 04:01:39;;;;;;;14.80;10.20;;;;;;;-2.28;69.04;102517.19;5051032;28;20041;-22
2022/03/01 04:04:04;;;;;;;13.13;9.35;;;;;;;-2.29;69.57;102520.56;5057016;28;20032;-20
2022/03/01 04:06:30;;;;;;;16.50;9.98;;;;;;;-2.29;69.79;102527.41;5034141;28;20056;-21
2022/03/01 04:08:56;;;;;;;15.70;9.60;;;;;;;-2.33;69.38;102513.38;5031756;28;20040;-21
2022/03/01 04:11:21;;;;;;;13.75;9.98;;;;;;;-2.33;69.53;102518.53;5053812;28;20033;-21
2022/03/01 04:13:46;;;;;;;13.15;8.55;;;;;;;-2.34;69.06;102521.88;5051620;28;20052;-20
2022/03/01 04:16:12;;;;;;;15.02;8.95;;;;;;;-2.35;69.35;102520.09;5016291;28;20025;-21
2022/03/01 04:18:37;;;;;;;13.10;8.75;;;;;;;-2.36;68.97;102515.72;5032537;28;20039;-22
2022/03/01 04:21:04;;;;;;;15.65;9.10;;;;;;;-2.37;69.35;102519.09;5051225;28;20497;-22
2022/03/01 04:23:30;;;;;;;16.40;10.07;;;;;;;-2.40;69.42;102513.69;5035883;28;20059;-21
2022/03/01 04:25:55;;;;;;;14.07;9.20;;;;;;;-2.40;69.35;102508.53;5053759;28;20470;-23
2022/03/01 04:28:21;;;;;;;12.93;8.77;;;;;;;-2.43;69.37;102503.13;5055347;28;20151;-21
2022/03/01 04:30:46;;;;;;;14.98;9.20;;;;;;;-2.43;68.84;102510.88;5058160;28;20382;-23
2022/03/01 04:33:12;;;;;;;13.07;9.05;;;;;;;-2.46;69.17;102504.69;5055173;28;20036;-20
2022/03/01 04:35:37;;;;;;;11.68;8.63;;;;;;;-2.47;69.19;102507.19;5052341;28;20020;-20
2022/03/01 04:38:03;;;;;;;12.75;8.93;;;;;;;-2.50;69.40;102502.66;5052341;28;20063;-22
2022/03/01 04:40:28;;;;;;;11.55;9.05;;;;;;;-2.50;69.41;102504.38;5059708;28;20032;-22
2022/03/01 04:42:54;;;;;;;16.40;8.95;;;;;;;-2.53;69.21;102497.28;5035772;28;20113;-20
2022/03/01 04:45:20;;;;;;;13.68;8.43;;;;;;;-2.52;69.28;102505.91;5054430;28;20035;-21
2022/03/01 04:47:45;;;;;;;16.02;9.65;;;;;;;-2.54;69.41;102515.25;5050170;28;20484;-20
2022/03/01 04:50:12;;;;;;;15.07;9.13;;;;;;;-2.56;68.98;102509.06;5055449;28;20094;-21
2022/03/01 04:52:37;;;;;;;15.63;9.30;;;;;;;-2.58;69.50;102503.78;5059233;28;20021;-21
2022/03/01 04:55:03;;;;;;;16.38;9.40;;;;;;;-2.58;69.25;102508.94;5055525;28;20415;-20
2022/03/01 04:57:29;;;;;;;13.57;9.75;;;;;;;-2.58;69.49;102514.13;5046208;28;20059;-21
2022/03/01 04:59:54;;;;;;;12.35;8.45;;;;;;;-2.60;69.06;102513.13;5055313;28;20064;-21
2022/03/01 05:02:19;;;;;;;11.88;9.00;;;;;;;-2.61;68.89;102511.31;5051341;28;20419;-20
2022/03/01 05:04:45;;;;;;;11.65;8.63;;;;;;;-2.62;69.52;102502.66;5060984;28;20028;-20
2022/03/01 05:07:10;;;;;;;10.23;8.27;;;;;;;-2.64;69.57;102504.22;5058118;28;20039;-19
2022/03/01 05:09:35;;;;;;;14.27;8.75;;;;;;;-2.64;69.35;102501.63;5057854;28;20021;-21
2022/03/01 05:12:01;;;;;;;13.45;9.30;;;;;;;-2.65;69.11;102502.44;5058759;28;20163;-21
2022/03/01 05:14:27;;;;;;;13.93;8.32;;;;;;;-2.64;69.12;102508.50;5055328;28;20386;-21
2022/03/01 05:16:52;;;;;;;14.40;9.30;;;;;;;-2.66;69.44;102507.47;5038921;28;20040;-20
2022/03/01 05:19:17;;;;;;;13.15;8.68;;;;;;;-2.65;69.17;102511.84;5040758;28;20082;-20
2022/03/01 05:21:43;;;;;;;11.75;7.97;;;;;;;-2.65;69.68;102509.28;5055270;28;20032;-23
2022/03/01 05:24:09;;;;;;;14.50;9.57;;;;;;;-2.68;69.34;102502.19;5054822;28;20082;-24
2022/03/01 05:26:34;;;;;;;12.15;8.23;;;;;;;-2.68;69.68;102506.47;5052673;28;20026;-22
2022/03/01 05:29:00;;;;;;;12.75;8.52;;;;;;;-2.68;69.53;102506.47;5023294;28;20031;-20
2022/03/01 05:31:26;;;;;;;13.77;9.18;;;;;;;-2.69;69.44;102509.84;5057610;28;20032;-22
2022/03/01 05:33:52;;;;;;;16.83;10.25;;;;;;;-2.68;69.31;102515.13;5057748;28;20031;-20
2022/03/01 05:36:18;;;;;;;14.98;9.82;;;;;;;-2.68;69.64;102524.53;5058644;28;20021;-24
2022/03/01 05:38:44;;;;;;;12.20;8.88;;;;;;;-2.68;69.11;102519.38;5053858;28;20075;-21
2022/03/01 05:41:09;;;;;;;12.73;9.23;;;;;;;-2.69;69.59;102520.16;5052278;28;20021;-25
2022/03/01 05:43:36;;;;;;;14.13;9.77;;;;;;;-2.68;69.29;102529.72;5035461;28;20072;-20
2022/03/01 05:46:01;;;;;;;15.85;10.40;;;;;;;-2.71;69.21;102520.97;5057551;28;20017;-21
2022/03/01 05:48:27;;;;;;;16.20;9.93;;;;;;;-2.69;69.63;102523.66;5034386;28;20601;-22
2022/03/01 05:50:53;;;;;;;13.10;8.65;;;;;;;-2.69;69.71;102527.91;5053580;28;20052;-20
2022/03/01 05:53:19;;;;;;;13.07;9.85;;;;;;;-2.72;69.63;102524.34;5052083;28;20037;-19
2022/03/01 05:55:44;;;;;;;12.55;9.63;;;;;;;-2.68;69.21;102529.72;5053094;28;20021;-19
2022/03/01 05:58:10;;;;;;;13.02;8.82;;;;;;;-2.71;69.17;102528.72;5055206;28;20013;-21
2022/03/01 06:00:35;;;;;;;14.38;10.05;;;;;;;-2.69;69.48;102535.66;5051563;28;20039;-20
2022/03/01 06:03:01;;;;;;;14.65;8.68;;;;;;;-2.68;69.37;102537.47;5038950;28;20111;-21
2022/03/01 06:05:28;;;;;;;14.07;9.70;;;;;;;-2.68;69.46;102540.94;5056817;28;20024;-20
2022/03/01 06:07:55;;;;;;;14.52;9.10;;;;;;;-2.69;69.55;102533.09;5055568;28;20033;-22
2022/03/01 06:10:21;;;;;;;10.07;8.13;;;;;;;-2.69;69.49;102540.84;5056292;28;20433;-21
2022/03/01 06:12:46;;;;;;;15.32;10.25;;;;;;;-2.70;69.23;102534.78;5049804;28;20025;-21
2022/03/01 06:15:11;;;;;;;15.63;10.18;;;;;;;-2.69;69.06;102538.25;5054886;28;20111;-19
2022/03/01 06:17:37;;;;;;;11.60;8.30;;;;;;;-2.70;69.34;102550.28;5058200;28;20720;-22
2022/03/01 06:20:03;;;;;;;14.77;9.43;;;;;;;-2.69;69.04;102546.00;5045363;28;20044;-22
2022/03/01 06:22:29;;;;;;;13.45;8.60;;;;;;;-2.71;68.95;102551.97;5054590;28;20031;-21
2022/03/01 06:24:55;;;;;;;17.17;9.25;;;;;;;-2.71;69.18;102549.38;5052136;28;20025;-23
2022/03/01 06:27:22;;;;;;;16.02;9.30;;;;;;;-2.71;69.25;102549.38;5053130;28;20101;-21
2022/03/01 06:29:47;;;;;;;11.75;8.68;;;;;;;-2.71;69.54;102549.38;5055100;28;20155;-20
2022/03/01 06:32:12;;;;;;;13.07;9.38;;;;;;;-2.70;69.10;102547.72;5055986;28;20031;-20
2022/03/01 06:34:38;;;;;;;13.32;9.57;;;;;;;-2.69;68.96;102554.66;5050877;28;20403;-22
2022/03/01 06:37:03;;;;;;;13.65;9.35;;;;;;;-2.68;69.53;102547.78;5033918;28;20070;-20
2022/03/01 06:39:29;;;;;;;14.65;9.63;;;;;;;-2.68;69.12;102556.44;5051366;28;20347;-19
2022/03/01 06:41:54;;;;;;;14.30;9.35;;;;;;;-2.68;69.62;102555.53;5055216;28;20021;-22
2022/03/01 06:44:19;;;;;;;17.75;9.95;;;;;;;-2.68;69.38;102564.19;5051865;28;20039;-20
2022/03/01 06:46:45;;;;;;;13.77;9.38;;;;;;;-2.67;69.60;102560.81;5032743;28;20036;-20
2022/03/01 06:49:10;;;;;;;13.30;9.15;;;;;;;-2.65;69.51;102568.69;5052975;28;20016;-20
2022/03/01 06:51:36;;;;;;;15.63;9.27;;;;;;;-2.64;69.74;102557.59;5047685;28;20025;-20
2022/03/01 06:54:01;;;;;;;15.48;9.48;;;;;;;-2.65;69.72;102553.19;5053918;28;20032;-18
2022/03/01 06:56:27;;;;;;;15.15;10.32;;;;;;;-2.63;69.40;102559.41;5035219;28;20039;-25
2022/03/01 06:58:53;;;;;;;12.65;9.60;;;;;;;-2.61;69.85;102552.63;5053175;28;20107;-20
2022/03/01 07:01:19;;;;;;;12.35;9.75;;;;;;;-2.60;69.69;102563.09;5052891;28;20158;-21
2022/03/01 07:03:45;;;;;;;13.73;9.80;;;;;;;-2.58;69.57;102565.78;5052776;28;20099;-20
2022/03/01 07:06:11;;;;;;;17.00;10.50;;;;;;;-2.56;69.88;102568.50;5050219;28;20067;-20
2022/03/01 07:08:36;;;;;;;16.08;10.60;;;;;;;-2.54;69.89;102574.69;5053885;28;20025;-21
2022/03/01 07:11:02;;;;;;;14.23;11.10;;;;;;;-2.52;70.04;102573.13;5045368;28;20056;-19
2022/03/01 07:13:27;;;;;;;15.98;10.68;;;;;;;-2.51;70.16;102577.47;5051160;28;20020;-21
2022/03/01 07:15:52;;;;;;;16.75;9.68;;;;;;;-2.50;69.96;102577.59;5050606;28;20036;-20
2022/03/01 07:18:18;;;;;;;17.95;10.45;;;;;;;-2.49;70.10;102579.44;5032849;28;20017;-21
2022/03/01 07:20:43;;;;;;;16.05;10.40;;;;;;;-2.47;70.20;102564.91;5053173;28;20039;-19
2022/03/01 07:23:10;;;;;;;16.35;10.88;;;;;;;-2.46;69.98;102566.72;5053656;28;20028;-20
2022/03/01 07:25:36;;;;;;;15.40;11.13;;;;;;;-2.45;70.07;102567.63;5052539;28;20071;-20
2022/03/01 07:28:02;;;;;;;15.68;10.93;;;;;;;-2.41;70.36;102563.59;5050826;28;20021;-21
2022/03/01 07:30:28;;;;;;;16.17;10.52;;;;;;;-2.39;70.34;102568.09;5053848;28;20120;-21
2022/03/01 07:32:55;;;;;;;14.45;11.13;;;;;;;-2.38;70.57;102564.72;5033540;28;20409;-20
2022/03/01 07:35:21;;;;;;;15.02;11.52;;;;;;;-2.34;70.38;102571.00;5054387;28;20039;-23
2022/03/01 07:37:47;;;;;;;15.50;10.80;;;;;;;-2.32;70.46;102577.19;5047392;28;20055;-21
2022/03/01 07:40:14;;;;;;;13.07;9.20;;;;;;;-2.28;70.67;102575.72;5049009;28;20111;-20
2022/03/01 07:42:40;;;;;;;18.25;10.88;;;;;;;-2.25;70.19;102569.13;5050894;28;20029;-21
2022/03/01 07:45:06;;;;;;;16.20;11.02;;;;;;;-2.23;70.63;102574.41;5048928;28;20024;-20
2022/03/01 07:47:31;;;;;;;17.63;10.68;;;;;;;-2.18;70.29;102583.38;5052272;28;20287;-22
2022/03/01 07:49:57;;;;;;;17.75;11.45;;;;;;;-2.14;70.64;102582.81;5055668;28;20025;-22
2022/03/01 07:52:23;;;;;;;13.70;10.55;;;;;;;-2.08;70.66;102582.38;5035539;28;20031;-20
2022/03/01 07:54:48;;;;;;;18.67;11.88;;;;;;;-2.04;70.35;102586.09;5049496;28;20029;-20
2022/03/01 07:57:14;;;;;;;15.07;10.63;;;;;;;-2.00;70.40;102583.84;5051763;28;20036;-20
2022/03/01 07:59:40;;;;;;;15.95;11.02;;;;;;;-1.96;70.40;102572.94;5017405;28;20036;-21
2022/03/01 08:02:05;;;;;;;17.00;11.23;;;;;;;-1.88;70.28;102573.50;5055107;28;20036;-24
2022/03/01 08:04:31;;;;;;;16.02;11.52;;;;;;;-1.83;70.03;102576.44;5050249;28;20025;-20
2022/03/01 08:06:56;;;;;;;15.73;11.77;;;;;;;-1.78;70.24;102580.25;5034256;28;20031;-21
2022/03/01 08:09:21;;;;;;;17.15;11.65;;;;;;;-1.72;69.79;102579.78;5049210;28;20372;-20
2022/03/01 08:11:47;;;;;;;17.52;11.73;;;;;;;-1.67;70.31;102578.41;5050655;28;20499;-20
2022/03/01 08:14:12;;;;;;;18.30;11.50;;;;;;;-1.61;70.18;102575.38;5031922;28;20029;-21
2022/03/01 08:16:37;;;;;;;16.63;11.45;;;;;;;-1.57;69.58;102574.81;5050212;28;20029;-20
2022/03/01 08:19:03;;;;;;;14.93;12.48;;;;;;;-1.52;69.72;102573.47;5051713;28;20028;-21
2022/03/01 08:21:28;;;;;;;16.40;11.82;;;;;;;-1.48;70.24;102570.28;5053041;28;20102;-20
2022/03/01 08:23:54;;;;;;;16.23;12.38;;;;;;;-1.40;69.74;102567.34;5049438;28;20036;-20
2022/03/01 08:26:19;;;;;;;17.77;13.35;;;;;;;-1.38;69.95;102561.50;5052160;28;20082;-21
2022/03/01 08:28:46;;;;;;;17.23;11.75;;;;;;;-1.31;69.78;102555.94;5032162;28;20411;-20
2022/03/01 08:31:12;;;;;;;17.13;12.00;;;;;;;-1.25;69.40;102552.91;5052851;28;20038;-22
2022/03/01 08:33:37;;;;;;;14.77;11.48;;;;;;;-1.19;69.36;102558.50;5050919;28;20040;-22
2022/03/01 08:36:03;;;;;;;17.92;13.02;;;;;;;-1.11;69.67;102556.44;5049305;28;20033;-19
2022/03/01 08:38:28;;;;;;;18.65;12.07;;;;;;;-1.06;69.59;102549.88;5032962;28;20033;-20
2022/03/01 08:40:54;;;;;;;18.63;12.70;;;;;;;-1.00;69.03;102544.22;5052274;28;20082;-23
2022/03/01 08:43:21;;;;;;;19.48;12.88;;;;;;;-0.94;69.67;102548.91;5033091;28;20033;-21
2022/03/01 08:45:47;;;;;;;20.30;13.30;;;;;;;-0.88;69.12;102549.34;5051620;28;20059;-19
2022/03/01 08:48:12;;;;;;;18.48;13.60;;;;;;;-0.81;69.35;102545.47;5048211;28;20075;-21
2022/03/01 08:50:38;;;;;;;15.45;12.15;;;;;;;-0.75;69.01;102545.91;5055045;28;20028;-21
2022/03/01 08:53:04;;;;;;;16.70;12.60;;;;;;;-0.69;69.20;102548.94;5050385;28;20025;-20
2022/03/01 08:55:30;;;;;;;24.73;13.30;;;;;;;-0.60;68.90;102542.56;5052158;28;20418;-22
2022/03/01 08:57:57;;;;;;;18.17;11.95;;;;;;;-0.55;68.91;102546.34;5051938;28;20020;-23
2022/03/01 09:00:22;;;;;;;17.80;11.75;;;;;;;-0.48;68.48;102540.78;5049218;28;20176;-19
2022/03/01 09:02:47;;;;;;;16.00;12.02;;;;;;;-0.42;68.74;102541.19;5050927;28;20356;-20
2022/03/01 09:05:13;;;;;;;15.13;12.30;;;;;;;-0.33;68.79;102535.69;5053304;28;20075;-20
2022/03/01 09:07:38;;;;;;;17.42;12.43;;;;;;;-0.27;68.23;102530.00;5051273;28;20029;-19
2022/03/01 09:10:05;;;;;;;16.80;13.07;;;;;;;-0.18;68.10;102528.03;5054829;28;20062;-20
2022/03/01 09:12:31;;;;;;;16.90;11.32;;;;;;;-0.11;67.89;102518.94;5050475;28;20104;-21
2022/03/01 09:14:57;;;;;;;18.15;12.73;;;;;;;-0.03;67.38;102517.75;5053020;28;20091;-20
2022/03/01 09:17:22;;;;;;;17.67;12.82;;;;;;;0.03;67.22;102501.66;5053166;28;20032;-21
2022/03/01 09:19:47;;;;;;;18.17;12.32;;;;;;;0.13;66.98;102510.94;5056869;28;20148;-20
2022/03/01 09:22:13;;;;;;;17.98;12.60;;;;;;;0.22;67.27;102513.22;5053099;28;20044;-20
2022/03/01 09:24:39;;;;;;;14.98;12.07;;;;;;;0.27;67.15;102504.06;5055853;28;20494;-22
2022/03/01 09:27:05;;;;;;;18.58;13.65;;;;;;;0.39;67.42;102514.28;5053173;28;20458;-22
2022/03/01 09:29:31;;;;;;;16.13;11.95;;;;;;;0.44;67.32;102507.72;5053288;28;20037;-22
2022/03/01 09:31:57;;;;;;;15.27;11.65;;;;;;;0.53;67.06;102509.94;5051658;28;20024;-21
2022/03/01 09:34:23;;;;;;;16.25;11.57;;;;;;;0.61;66.98;102506.16;5034054;28;20017;-24
2022/03/01 09:36:48;;;;;;;13.93;11.35;;;;;;;0.70;66.59;102503.19;5052461;28;20449;-21
2022/03/01 09:39:14;;;;;;;15.30;11.68;;;;;;;0.78;67.09;102493.28;5051206;28;20025;-24
2022/03/01 09:41:39;;;;;;;14.75;11.32;;;;;;;0.83;66.32;102491.84;5055048;28;20032;-21
2022/03/01 09:44:05;;;;;;;14.05;10.52;;;;;;;0.91;66.61;102487.13;5052369;28;20079;-21
2022/03/01 09:46:31;;;;;;;16.45;10.75;;;;;;;0.99;66.54;102484.97;5053635;28;20037;-22
2022/03/01 09:48:56;;;;;;;17.27;10.98;;;;;;;1.10;66.58;102483.03;5055571;28;20501;-23
2022/03/01 09:51:22;;;;;;;14.38;9.70;;;;;;;1.18;65.77;102489.56;5052664;28;20033;-21
2022/03/01 09:53:50;;;;;;;12.13;10.55;;;;;;;1.24;65.52;102484.72;5028483;28;20383;-25
2022/03/01 09:56:15;;;;;;;14.15;12.05;;;;;;;1.35;65.59;102482.78;5052054;28;20058;-24
2022/03/01 09:58:47;;;;;;;14.48;11.63;;;;;;;1.44;65.31;102481.50;5054931;28;20146;-22
2022/03/01 10:01:14;;;;;;;15.18;10.52;;;;;;;1.49;65.26;102475.75;5053700;28;20415;-22
2022/03/01 10:03:40;;;;;;;12.70;10.32;;;;;;;1.57;65.45;102470.09;5052029;28;20025;-25
2022/03/01 10:06:11;;;;;;;12.90;9.77;;;;;;;1.66;64.99;102468.91;5055412;28;20414;-21
2022/03/01 10:08:36;;;;;;;13.38;10.48;;;;;;;1.75;64.77;102462.44;5050046;28;20029;-22
2022/03/01 10:11:03;;;;;;;14.57;10.23;;;;;;;1.82;64.61;102458.47;5053759;28;20059;-20
2022/03/01 10:13:33;;;;;;;13.07;10.15;;;;;;;1.89;64.60;102458.91;5053380;28;20036;-22
2022/03/01 10:16:08;;;;;;;13.75;9.93;;;;;;;1.96;64.04;102457.53;5052039;28;20048;-21
2022/03/01 10:18:49;;;;;;;15.90;11.18;;;;;;;2.05;64.03;102446.75;5051754;28;20032;-23
2022/03/01 10:21:15;;;;;;;;;;;;;;;2.15;63.90;102453.34;5049883;28;20747;-21
2022/03/01 10:23:55;;;;;;;12.50;9.68;;;;;;;2.24;64.03;102446.03;5050177;28;19921;-21
2022/03/01 10:26:24;;;;;;;12.13;9.35;;;;;;;2.29;63.80;102436.75;5050653;28;20034;-22
2022/03/01 10:28:52;;;;;;;14.27;10.60;;;;;;;2.35;63.63;102431.00;5045750;28;20483;-22
2022/03/01 10:31:22;;;;;;;11.63;9.13;;;;;;;2.44;63.72;102441.88;5048355;28;20490;-23
2022/03/01 10:33:57;;;;;;;12.63;9.82;;;;;;;2.56;63.34;102430.31;5032065;28;20051;-24
2022/03/01 10:36:29;;;;;;;11.65;9.82;;;;;;;2.66;63.32;102432.59;5049633;28;20071;-22
2022/03/01 10:39:01;;;;;;;12.82;10.15;;;;;;;2.74;63.30;102438.22;5051252;28;20033;-21
2022/03/01 10:41:29;;;;;;;12.82;9.68;;;;;;;2.79;63.08;102428.00;5049102;28;20036;-22
2022/03/01 10:43:59;;;;;;;13.85;10.15;;;;;;;2.86;62.94;102426.63;5043862;28;20487;-21
2022/03/01 10:46:30;;;;;;;13.95;9.85;;;;;;;2.92;62.87;102425.22;5053317;28;20471;-22
2022/03/01 10:49:05;;;;;;;13.52;10.40;;;;;;;3.00;62.55;102425.59;5048483;28;20112;-21
2022/03/01 10:51:31;;;;;;;12.73;9.85;;;;;;;3.07;62.41;102421.63;5046287;28;20483;-22
2022/03/01 10:53:59;;;;;;;12.48;9.10;;;;;;;3.16;62.25;102422.06;5050328;28;20029;-22
2022/03/01 10:56:34;;;;;;;11.00;8.93;;;;;;;3.23;62.22;102410.22;5047576;28;20032;-22
2022/03/01 10:59:00;;;;;;;11.82;9.07;;;;;;;3.29;61.69;102407.00;5050021;28;20021;-22
2022/03/01 11:01:27;;;;;;;12.70;9.18;;;;;;;3.41;62.22;102409.34;5051051;28;20017;-21
2022/03/01 11:03:53;;;;;;;10.95;8.57;;;;;;;3.45;61.76;102412.19;5047733;28;20372;-22
2022/03/01 11:06:18;;;;;;;9.52;8.52;;;;;;;3.50;61.23;102408.88;5050764;28;20032;-22
2022/03/01 11:08:45;;;;;;;11.80;9.82;;;;;;;3.56;60.89;102410.06;5033236;28;20391;-22